createdAt,value
2019-02-06T00:01:31.264Z,15.18
2019-02-06T00:03:59.347Z,15.17
2019-02-06T00:06:27.468Z,15.17
2019-02-06T00:08:55.265Z,15.16
2019-02-06T00:11:23.156Z,15.19
2019-02-06T00:13:50.973Z,15.10
2019-02-06T00:16:18.824Z,15.08
2019-02-06T00:18:46.628Z,15.09
2019-02-06T00:21:14.448Z,15.04
2019-02-06T00:23:42.368Z,15.05
2019-02-06T00:26:10.274Z,15.07
2019-02-06T00:28:38.378Z,15.03
2019-02-06T00:31:06.479Z,15.08
2019-02-06T00:33:34.293Z,15.09
2019-02-06T00:36:02.102Z,15.13
2019-02-06T00:38:29.850Z,15.10
2019-02-06T00:40:57.787Z,15.04
2019-02-06T00:43:25.921Z,15.05
2019-02-06T00:45:53.844Z,15.05
2019-02-06T00:48:21.592Z,15.00
2019-02-06T00:50:49.345Z,15.05
2019-02-06T00:53:17.465Z,15.04
2019-02-06T00:55:45.209Z,15.02
2019-02-06T00:58:12.948Z,14.87
2019-02-06T01:00:41.285Z,14.98
2019-02-06T01:03:09.158Z,14.95
2019-02-06T01:05:38.708Z,14.96
2019-02-06T01:08:08.731Z,14.91
2019-02-06T01:10:36.588Z,14.89
2019-02-06T01:13:04.678Z,14.95
2019-02-06T01:15:32.408Z,14.95
2019-02-06T01:18:00.498Z,15.02
2019-02-06T01:20:28.308Z,15.03
2019-02-06T01:22:57.244Z,15.02
2019-02-06T01:25:24.996Z,15.01
2019-02-06T01:27:52.828Z,15.00
2019-02-06T01:30:22.846Z,14.99
2019-02-06T01:32:50.789Z,14.97
2019-02-06T01:35:18.798Z,14.97
2019-02-06T01:37:46.540Z,14.98
2019-02-06T01:40:15.013Z,15.03
2019-02-06T01:42:42.864Z,15.03
2019-02-06T01:45:11.444Z,14.93
2019-02-06T01:47:39.216Z,14.86
2019-02-06T01:50:09.582Z,14.85
2019-02-06T01:52:37.423Z,14.76
2019-02-06T01:55:05.429Z,14.89
2019-02-06T01:57:33.177Z,14.98
2019-02-06T02:00:00.972Z,14.97
2019-02-06T02:02:28.822Z,15.01
2019-02-06T02:04:56.648Z,14.91
2019-02-06T02:07:24.472Z,14.83
2019-02-06T02:09:52.601Z,14.85
2019-02-06T02:12:20.461Z,14.84
2019-02-06T02:14:48.343Z,14.84
2019-02-06T02:17:16.180Z,14.94
2019-02-06T02:19:43.984Z,14.99
2019-02-06T02:22:11.749Z,15.02
2019-02-06T02:24:39.549Z,14.99
2019-02-06T02:27:07.521Z,14.92
2019-02-06T02:29:35.293Z,14.99
2019-02-06T02:32:03.223Z,15.04
2019-02-06T02:34:31.091Z,15.07
2019-02-06T02:36:58.881Z,15.04
2019-02-06T02:39:26.688Z,15.02
2019-02-06T02:41:54.428Z,15.03
2019-02-06T02:44:22.310Z,15.01
2019-02-06T02:46:50.104Z,15.04
2019-02-06T02:49:17.850Z,15.08
2019-02-06T02:51:45.607Z,15.05
2019-02-06T02:54:13.531Z,15.09
2019-02-06T02:56:41.407Z,15.05
2019-02-06T02:59:09.200Z,15.06
2019-02-06T03:02:02.407Z,15.04
2019-02-06T03:04:40.702Z,15.09
2019-02-06T03:07:08.530Z,15.18
2019-02-06T03:09:36.931Z,15.08
2019-02-06T03:12:04.691Z,15.06
2019-02-06T03:14:32.431Z,15.07
2019-02-06T03:17:03.260Z,15.18
2019-02-06T03:19:29.789Z,14.97
2019-02-06T03:21:57.529Z,15.13
2019-02-06T03:24:25.371Z,15.06
2019-02-06T03:26:53.373Z,15.11
2019-02-06T03:29:21.149Z,15.09
2019-02-06T03:31:49.030Z,15.17
2019-02-06T03:34:16.939Z,15.20
2019-02-06T03:36:44.752Z,15.14
2019-02-06T03:39:12.590Z,15.16
2019-02-06T03:41:40.329Z,15.15
2019-02-06T03:44:08.473Z,15.14
2019-02-06T03:46:36.318Z,15.15
2019-02-06T03:49:04.215Z,15.12
2019-02-06T03:51:32.076Z,15.09
2019-02-06T03:53:59.829Z,15.16
2019-02-06T03:56:27.643Z,15.13
2019-02-06T03:58:55.427Z,15.09
2019-02-06T04:01:23.562Z,15.07
2019-02-06T04:03:51.367Z,15.12
2019-02-06T04:06:19.291Z,15.07
2019-02-06T04:08:47.118Z,15.06
2019-02-06T04:11:14.863Z,15.06
2019-02-06T04:13:42.628Z,14.93
2019-02-06T04:16:10.402Z,15.02
2019-02-06T04:18:38.550Z,15.08
2019-02-06T04:21:06.320Z,15.09
2019-02-06T04:23:34.137Z,15.06
2019-02-06T04:26:02.046Z,15.14
2019-02-06T04:28:29.809Z,15.06
2019-02-06T04:30:57.654Z,15.07
2019-02-06T04:33:25.515Z,15.13
2019-02-06T04:35:53.740Z,15.11
2019-02-06T04:38:21.767Z,15.01
2019-02-06T04:40:49.948Z,15.01
2019-02-06T04:43:17.845Z,14.99
2019-02-06T04:45:45.658Z,15.03
2019-02-06T04:48:13.404Z,15.05
2019-02-06T04:50:41.216Z,15.04
2019-02-06T04:53:09.361Z,15.11
2019-02-06T04:55:37.200Z,15.03
2019-02-06T04:58:06.769Z,15.10
2019-02-06T05:00:34.583Z,15.05
2019-02-06T05:03:02.409Z,15.00
2019-02-06T05:05:30.192Z,15.04
2019-02-06T05:07:58.057Z,15.01
2019-02-06T05:10:26.212Z,15.01
2019-02-06T05:12:54.019Z,15.03
2019-02-06T05:15:21.816Z,15.07
2019-02-06T05:17:49.786Z,15.00
2019-02-06T05:20:20.632Z,15.10
2019-02-06T05:22:48.454Z,15.08
2019-02-06T05:25:16.284Z,14.97
2019-02-06T05:27:44.628Z,15.00
2019-02-06T05:30:12.497Z,14.97
2019-02-06T05:32:42.940Z,15.05
2019-02-06T05:35:10.017Z,14.99
2019-02-06T05:38:09.491Z,14.97
2019-02-06T05:40:37.280Z,14.95
2019-02-06T05:43:05.027Z,15.06
2019-02-06T05:45:32.891Z,14.96
2019-02-06T05:48:00.856Z,15.02
2019-02-06T05:50:28.620Z,14.96
2019-02-06T05:52:56.509Z,15.03
2019-02-06T05:55:27.828Z,14.89
2019-02-06T05:57:55.730Z,14.85
2019-02-06T06:00:27.387Z,14.81
2019-02-06T06:02:56.926Z,14.82
2019-02-06T06:05:24.909Z,14.90
2019-02-06T06:07:52.988Z,14.93
2019-02-06T06:10:20.846Z,14.83
2019-02-06T06:12:48.575Z,14.81
2019-02-06T06:15:27.414Z,14.64
2019-02-06T06:17:55.273Z,14.54
2019-02-06T06:20:23.102Z,14.63
2019-02-06T06:22:50.991Z,14.65
2019-02-06T06:25:18.839Z,14.76
2019-02-06T06:27:46.993Z,14.78
2019-02-06T06:30:15.382Z,14.75
2019-02-06T06:32:43.550Z,14.71
2019-02-06T06:35:11.460Z,14.62
2019-02-06T06:37:41.339Z,14.67
2019-02-06T06:40:10.237Z,14.71
2019-02-06T06:42:38.169Z,14.69
2019-02-06T06:45:07.672Z,14.66
2019-02-06T06:47:35.564Z,14.60
2019-02-06T06:50:03.600Z,14.71
2019-02-06T06:52:31.472Z,14.57
2019-02-06T06:54:59.349Z,14.55
2019-02-06T06:57:27.117Z,14.56
2019-02-06T06:59:55.695Z,14.52
2019-02-06T07:02:23.705Z,14.49
2019-02-06T07:04:51.533Z,14.59
2019-02-06T07:07:19.281Z,14.63
2019-02-06T07:09:47.140Z,14.58
2019-02-06T07:12:14.872Z,14.54
2019-02-06T07:14:42.671Z,14.55
2019-02-06T07:17:10.522Z,14.54
2019-02-06T07:19:38.354Z,14.53
2019-02-06T07:22:06.193Z,14.61
2019-02-06T07:24:34.152Z,14.58
2019-02-06T07:27:01.983Z,14.56
2019-02-06T07:29:29.736Z,14.52
2019-02-06T07:31:57.469Z,14.53
2019-02-06T07:34:25.244Z,14.53
2019-02-06T07:36:53.138Z,14.54
2019-02-06T07:39:20.909Z,14.57
2019-02-06T07:41:48.737Z,14.60
2019-02-06T07:44:16.555Z,14.56
2019-02-06T07:46:44.419Z,14.54
2019-02-06T07:49:12.193Z,14.57
2019-02-06T07:51:39.956Z,14.45
2019-02-06T07:54:08.263Z,14.55
2019-02-06T07:56:36.078Z,14.52
2019-02-06T07:59:04.186Z,14.49
2019-02-06T08:01:32.088Z,14.54
2019-02-06T08:03:59.826Z,14.41
2019-02-06T08:06:27.569Z,14.35
2019-02-06T08:08:55.328Z,14.36
2019-02-06T08:11:23.561Z,14.34
2019-02-06T08:13:51.780Z,14.35
2019-02-06T08:16:19.587Z,14.28
2019-02-06T08:18:47.512Z,14.20
2019-02-06T08:21:15.244Z,14.42
2019-02-06T08:23:42.977Z,14.21
2019-02-06T08:26:10.739Z,14.18
2019-02-06T08:28:38.864Z,14.18
2019-02-06T08:31:06.728Z,14.11
2019-02-06T08:33:34.598Z,14.21
2019-02-06T08:36:02.407Z,14.25
2019-02-06T08:38:30.332Z,14.20
2019-02-06T08:40:58.109Z,14.24
2019-02-06T08:43:26.015Z,14.18
2019-02-06T08:45:54.056Z,14.17
2019-02-06T08:48:21.887Z,14.04
2019-02-06T08:50:49.619Z,14.06
2019-02-06T08:53:17.467Z,14.04
2019-02-06T08:55:45.228Z,14.03
2019-02-06T08:58:12.964Z,14.04
2019-02-06T09:00:40.751Z,14.02
2019-02-06T09:03:09.347Z,13.92
2019-02-06T09:05:37.112Z,13.78
2019-02-06T09:08:05.608Z,14.02
2019-02-06T09:10:33.361Z,13.98
2019-02-06T09:13:01.167Z,14.10
2019-02-06T09:15:28.924Z,14.16
2019-02-06T09:17:56.760Z,14.19
2019-02-06T09:20:25.228Z,14.04
2019-02-06T09:22:53.080Z,13.91
2019-02-06T09:25:21.008Z,14.01
2019-02-06T09:27:48.771Z,14.13
2019-02-06T09:30:20.373Z,14.14
2019-02-06T09:32:48.168Z,14.11
2019-02-06T09:35:15.983Z,14.13
2019-02-06T09:37:44.013Z,14.11
2019-02-06T09:40:12.464Z,14.00
2019-02-06T09:42:40.248Z,14.02
2019-02-06T09:45:08.465Z,14.05
2019-02-06T09:47:36.275Z,14.10
2019-02-06T09:50:05.121Z,14.15
2019-02-06T09:52:32.905Z,14.26
2019-02-06T09:55:01.127Z,14.23
2019-02-06T09:57:28.927Z,14.24
2019-02-06T09:59:56.680Z,14.26
2019-02-06T10:02:24.443Z,14.23
2019-02-06T10:04:52.263Z,14.29
2019-02-06T10:07:19.985Z,14.30
2019-02-06T10:09:47.784Z,14.24
2019-02-06T10:12:16.002Z,14.36
2019-02-06T10:14:43.833Z,14.25
2019-02-06T10:17:11.585Z,14.15
2019-02-06T10:19:42.350Z,14.33
2019-02-06T10:22:09.024Z,14.28
2019-02-06T10:24:36.770Z,14.37
2019-02-06T10:27:04.598Z,14.30
2019-02-06T10:29:32.827Z,14.34
2019-02-06T10:32:00.580Z,14.33
2019-02-06T10:34:28.350Z,14.36
2019-02-06T10:36:56.101Z,14.31
2019-02-06T10:39:33.981Z,14.25
2019-02-06T10:41:53.373Z,14.35
2019-02-06T10:44:21.214Z,14.33
2019-02-06T10:46:49.224Z,14.25
2019-02-06T10:49:16.963Z,14.26
2019-02-06T10:51:44.744Z,14.25
2019-02-06T10:54:14.614Z,14.24
2019-02-06T10:56:42.044Z,14.18
2019-02-06T10:59:09.864Z,14.16
2019-02-06T11:01:37.624Z,14.08
2019-02-06T11:04:05.546Z,14.25
2019-02-06T11:06:33.562Z,14.34
2019-02-06T11:09:01.320Z,14.32
2019-02-06T11:11:29.103Z,14.39
2019-02-06T11:13:56.912Z,14.42
2019-02-06T11:16:24.656Z,14.45
2019-02-06T11:18:52.411Z,14.39
2019-02-06T11:21:20.537Z,14.42
2019-02-06T11:23:48.428Z,14.47
2019-02-06T11:26:16.204Z,14.56
2019-02-06T11:28:44.028Z,14.64
2019-02-06T11:31:11.940Z,14.62
2019-02-06T11:33:39.688Z,14.52
2019-02-06T11:36:07.754Z,14.59
2019-02-06T11:38:35.776Z,14.65
2019-02-06T11:41:03.711Z,14.67
2019-02-06T11:43:32.129Z,14.70
2019-02-06T11:55:45.379Z,14.77
2019-02-06T11:58:13.152Z,14.75
2019-02-06T12:01:06.275Z,14.78
2019-02-06T12:03:34.028Z,14.77
2019-02-06T12:06:02.042Z,14.76
2019-02-06T12:08:31.253Z,14.80
2019-02-06T12:10:59.152Z,14.85
2019-02-06T12:13:27.164Z,14.79
2019-02-06T12:15:54.988Z,14.92
2019-02-06T12:18:22.769Z,14.77
2019-02-06T12:20:51.735Z,14.81
2019-02-06T12:23:31.544Z,14.79
2019-02-06T12:25:51.832Z,14.80
2019-02-06T12:28:19.613Z,14.82
2019-02-06T12:30:47.432Z,14.82
2019-02-06T12:33:15.237Z,14.79
2019-02-06T12:35:43.146Z,14.81
2019-02-06T12:38:10.987Z,14.82
2019-02-06T12:40:38.815Z,14.87
2019-02-06T12:43:07.188Z,14.92
2019-02-06T12:45:36.685Z,14.91
2019-02-06T12:48:04.575Z,14.78
2019-02-06T12:50:32.395Z,14.89
2019-02-06T12:53:00.242Z,14.89
2019-02-06T12:55:29.280Z,14.87
2019-02-06T12:57:57.084Z,14.82
2019-02-06T13:00:25.755Z,14.91
2019-02-06T13:02:57.305Z,14.91
2019-02-06T13:05:23.449Z,14.96
2019-02-06T13:07:51.316Z,14.99
2019-02-06T13:10:19.186Z,14.91
2019-02-06T13:12:47.142Z,14.92
2019-02-06T13:15:14.905Z,14.86
2019-02-06T13:17:42.763Z,14.91
2019-02-06T13:20:12.277Z,14.88
2019-02-06T13:22:40.046Z,14.90
2019-02-06T13:25:08.169Z,14.94
2019-02-06T13:27:36.227Z,14.95
2019-02-06T13:30:04.720Z,14.94
2019-02-06T13:32:32.444Z,15.01
2019-02-06T13:35:00.335Z,14.95
2019-02-06T13:37:28.436Z,14.98
2019-02-06T13:39:56.224Z,14.97
2019-02-06T13:42:24.003Z,14.98
2019-02-06T13:44:51.789Z,15.06
2019-02-06T13:47:19.619Z,15.07
2019-02-06T13:49:47.445Z,15.07
2019-02-06T13:52:15.472Z,15.05
2019-02-06T13:54:43.235Z,15.05
2019-02-06T13:57:11.069Z,15.04
2019-02-06T13:59:38.891Z,15.06
2019-02-06T14:02:06.648Z,15.06
2019-02-06T14:04:34.415Z,14.99
2019-02-06T14:07:02.216Z,15.07
2019-02-06T14:09:29.958Z,15.10
2019-02-06T14:11:57.700Z,15.09
2019-02-06T14:14:26.990Z,15.16
2019-02-06T14:16:54.971Z,15.16
2019-02-06T14:19:22.800Z,15.09
2019-02-06T14:21:50.836Z,15.09
2019-02-06T14:24:37.864Z,15.09
2019-02-06T14:27:24.896Z,15.12
2019-02-06T14:30:27.344Z,15.11
2019-02-06T14:33:02.372Z,15.20
2019-02-06T14:35:33.614Z,15.22
2019-02-06T14:38:30.002Z,15.24
2019-02-06T14:41:08.635Z,15.20
2019-02-06T14:44:03.756Z,15.18
2019-02-06T14:47:09.063Z,15.20
2019-02-06T14:49:55.018Z,15.25
2019-02-06T14:52:26.541Z,15.29
2019-02-06T14:55:00.664Z,15.31
2019-02-06T14:57:35.730Z,15.22
2019-02-06T15:00:26.330Z,15.25
2019-02-06T15:03:13.494Z,15.25
2019-02-06T15:06:03.726Z,15.24
2019-02-06T15:08:40.491Z,15.31
2019-02-06T15:11:19.695Z,15.30
2019-02-06T15:13:55.800Z,15.27
2019-02-06T15:16:48.884Z,15.39
2019-02-06T15:19:38.816Z,15.23
2019-02-06T15:22:15.309Z,15.33
2019-02-06T15:25:11.238Z,15.36
2019-02-06T15:27:57.080Z,15.37
2019-02-06T15:30:34.180Z,15.39
2019-02-06T15:33:23.782Z,15.38
2019-02-06T15:35:59.104Z,15.39
2019-02-06T15:38:39.977Z,15.41
2019-02-06T15:41:31.340Z,15.41
2019-02-06T15:44:05.849Z,15.43
2019-02-06T15:46:47.439Z,15.42
2019-02-06T15:49:23.881Z,15.39
2019-02-06T15:52:29.357Z,15.43
2019-02-06T15:55:15.342Z,15.40
2019-02-06T15:58:20.988Z,15.42
2019-02-06T16:01:07.060Z,15.44
2019-02-06T16:04:09.914Z,15.50
2019-02-06T16:06:56.026Z,15.53
2019-02-06T16:09:34.686Z,15.50
2019-02-06T16:12:06.023Z,15.51
2019-02-06T16:14:56.363Z,15.52
2019-02-06T16:17:42.461Z,15.56
2019-02-06T16:20:35.607Z,15.54
2019-02-06T16:23:31.668Z,15.40
2019-02-06T16:26:07.438Z,15.54
2019-02-06T16:28:57.251Z,15.54
2019-02-06T16:31:30.145Z,15.52
2019-02-06T16:34:01.825Z,15.50
2019-02-06T16:36:55.178Z,15.56
2019-02-06T16:39:29.149Z,15.55
2019-02-06T16:42:22.691Z,15.56
2019-02-06T16:44:56.615Z,15.57
2019-02-06T16:47:27.568Z,15.65
2019-02-06T16:50:26.805Z,15.59
2019-02-06T16:53:12.620Z,15.60
2019-02-06T16:55:59.481Z,15.61
2019-02-06T16:58:31.564Z,15.64
2019-02-06T17:01:17.513Z,15.64
2019-02-06T17:03:57.944Z,15.47
2019-02-06T17:06:38.671Z,15.64
2019-02-06T17:09:16.560Z,15.66
2019-02-06T17:11:49.666Z,15.60
2019-02-06T17:14:39.806Z,15.63
2019-02-06T17:17:33.262Z,15.64
2019-02-06T17:20:32.458Z,15.68
2019-02-06T17:23:19.378Z,15.68
2019-02-06T17:26:09.628Z,15.69
2019-02-06T17:28:43.312Z,15.66
2019-02-06T17:31:18.756Z,15.70
2019-02-06T17:33:50.742Z,15.70
2019-02-06T17:36:32.477Z,15.72
2019-02-06T17:39:24.414Z,15.75
2019-02-06T17:41:54.502Z,15.73
2019-02-06T17:44:25.909Z,15.74
2019-02-06T17:46:56.630Z,15.86
2019-02-06T17:49:49.736Z,15.77
2019-02-06T17:52:21.565Z,15.73
2019-02-06T17:55:07.429Z,15.73
2019-02-06T17:57:35.363Z,15.75
2019-02-06T18:00:04.450Z,15.75
2019-02-06T18:02:32.237Z,15.73
2019-02-06T18:05:00.096Z,15.82
2019-02-06T18:07:28.112Z,15.86
2019-02-06T18:09:55.967Z,15.84
2019-02-06T18:12:26.257Z,15.84
2019-02-06T18:14:53.281Z,15.85
2019-02-06T18:17:21.204Z,15.83
2019-02-06T18:19:55.267Z,15.84
2019-02-06T18:22:23.740Z,15.89
2019-02-06T18:24:51.671Z,15.86
2019-02-06T18:27:19.503Z,15.69
2019-02-06T18:29:47.262Z,15.83
2019-02-06T18:32:15.501Z,15.93
2019-02-06T18:34:43.305Z,15.89
2019-02-06T18:37:11.203Z,15.91
2019-02-06T18:39:39.034Z,15.89
2019-02-06T18:42:07.119Z,15.96
2019-02-06T18:44:34.959Z,15.96
2019-02-06T18:47:02.814Z,15.97
2019-02-06T18:49:32.155Z,16.01
2019-02-06T18:52:00.231Z,15.95
2019-02-06T18:54:28.164Z,15.94
2019-02-06T18:56:56.000Z,15.97
2019-02-06T18:59:23.881Z,15.96
2019-02-06T19:01:51.735Z,15.91
2019-02-06T19:04:19.998Z,16.01
2019-02-06T19:06:47.926Z,15.94
2019-02-06T19:09:16.337Z,15.95
2019-02-06T19:11:44.191Z,15.98
2019-02-06T19:14:12.013Z,15.99
2019-02-06T19:16:39.955Z,15.99
2019-02-06T19:19:12.200Z,16.03
2019-02-06T19:21:42.802Z,15.98
2019-02-06T19:24:10.878Z,16.02
2019-02-06T19:26:38.696Z,15.95
2019-02-06T19:29:06.597Z,16.01
2019-02-06T19:31:34.428Z,16.01
2019-02-06T19:34:02.562Z,16.04
2019-02-06T19:36:30.459Z,16.14
2019-02-06T19:38:58.287Z,16.12
2019-02-06T19:41:26.084Z,16.11
2019-02-06T19:43:56.487Z,16.10
2019-02-06T19:46:24.320Z,16.11
2019-02-06T19:48:52.160Z,16.10
2019-02-06T19:51:19.976Z,16.14
2019-02-06T19:53:47.981Z,16.11
2019-02-06T19:56:15.798Z,16.11
2019-02-06T19:58:43.580Z,16.11
2019-02-06T20:01:11.389Z,16.15
2019-02-06T20:03:39.253Z,16.12
2019-02-06T20:06:07.074Z,16.20
2019-02-06T20:08:34.921Z,16.13
2019-02-06T20:11:02.776Z,16.17
2019-02-06T20:13:30.955Z,16.14
2019-02-06T20:15:58.876Z,16.11
2019-02-06T20:18:30.467Z,16.16
2019-02-06T20:20:58.210Z,16.16
2019-02-06T20:23:26.037Z,16.16
2019-02-06T20:26:31.427Z,16.12
2019-02-06T20:29:25.072Z,16.19
2019-02-06T20:36:05.549Z,16.24
2019-02-06T20:40:11.838Z,16.22
2019-02-06T20:42:25.329Z,16.28
2019-02-06T20:45:06.564Z,16.32
2019-02-06T20:47:37.773Z,16.27
2019-02-06T20:50:06.259Z,16.25
2019-02-06T20:52:34.263Z,16.24
2019-02-06T20:55:02.210Z,16.28
2019-02-06T20:57:31.512Z,16.40
2019-02-06T20:59:59.845Z,16.34
2019-02-06T21:02:29.553Z,16.26
2019-02-06T21:05:00.836Z,16.36
2019-02-06T21:07:28.817Z,16.33
2019-02-06T21:09:59.287Z,16.28
2019-02-06T21:12:27.237Z,16.25
2019-02-06T21:14:55.659Z,16.43
2019-02-06T21:17:23.730Z,16.34
2019-02-06T21:19:51.698Z,16.37
2019-02-06T21:22:19.666Z,16.37
2019-02-06T21:24:47.511Z,16.31
2019-02-06T21:27:15.369Z,16.36
2019-02-06T21:29:43.575Z,16.37
2019-02-06T21:32:12.743Z,16.36
2019-02-06T21:34:40.773Z,16.36
2019-02-06T21:37:15.746Z,16.39
2019-02-06T21:39:57.841Z,16.25
2019-02-06T21:42:25.728Z,16.36
2019-02-06T21:44:53.923Z,16.41
2019-02-06T21:47:24.883Z,16.37
2019-02-06T21:49:52.475Z,16.27
2019-02-06T21:52:21.348Z,16.40
2019-02-06T21:54:49.214Z,16.38
2019-02-06T21:57:17.041Z,16.39
2019-02-06T21:59:46.236Z,16.42
2019-02-06T22:02:14.074Z,16.39
2019-02-06T22:04:41.916Z,16.46
2019-02-06T22:07:09.740Z,16.42
2019-02-06T22:09:39.628Z,16.32
2019-02-06T22:12:10.623Z,16.32
2019-02-06T22:14:39.119Z,16.21
2019-02-06T22:17:06.974Z,16.36
2019-02-06T22:19:39.445Z,16.34
2019-02-06T22:22:31.729Z,16.17
2019-02-06T22:24:59.636Z,16.36
2019-02-06T22:27:27.477Z,16.40
2019-02-06T22:29:56.599Z,16.44
2019-02-06T22:32:24.720Z,16.43
2019-02-06T22:34:52.561Z,16.47
2019-02-06T22:37:23.456Z,16.46
2019-02-06T22:39:51.292Z,16.48
2019-02-06T22:42:19.417Z,16.43
2019-02-06T22:44:47.425Z,16.43
2019-02-06T22:47:15.187Z,16.40
2019-02-06T22:49:42.914Z,16.45
2019-02-06T22:52:10.945Z,16.44
2019-02-06T22:54:38.719Z,16.40
2019-02-06T22:57:06.577Z,16.46
2019-02-06T22:59:34.392Z,16.43
2019-02-06T23:02:02.148Z,16.40
2019-02-06T23:04:29.985Z,16.27
2019-02-06T23:06:57.812Z,16.44
2019-02-06T23:09:25.708Z,16.45
2019-02-06T23:11:53.552Z,16.40
2019-02-06T23:14:21.391Z,16.43
2019-02-06T23:16:49.226Z,16.44
2019-02-06T23:19:16.980Z,16.41
2019-02-06T23:21:44.880Z,16.42
2019-02-06T23:24:12.678Z,16.36
2019-02-06T23:26:40.419Z,16.42
2019-02-06T23:29:08.241Z,16.34
2019-02-06T23:31:36.396Z,16.41
2019-02-06T23:34:04.332Z,16.43
2019-02-06T23:36:32.340Z,16.38
2019-02-06T23:39:00.114Z,16.42
2019-02-06T23:41:27.921Z,16.44
2019-02-06T23:43:55.667Z,16.44
2019-02-06T23:46:23.436Z,16.36
2019-02-06T23:48:51.253Z,16.37
2019-02-06T23:51:19.081Z,16.41
2019-02-06T23:53:46.825Z,16.41
2019-02-06T23:56:14.578Z,16.43
2019-02-06T23:58:42.323Z,16.38
